sensor_id;sensor_type;location;lat;lon;timestamp;pressure;altitude;pressure_sealevel;temperature;humidity
41624;BME280;27319;50.306;18.926;2022-12-26T00:00:41;98330.28;;;4.44;100.00
41624;BME280;27319;50.306;18.926;2022-12-26T00:04:22;98330.13;;;4.45;100.00
41624;BME280;27319;50.306;18.926;2022-12-26T00:07:43;98327.28;;;4.37;100.00
41624;BME280;27319;50.306;18.926;2022-12-26T00:11:43;98317.41;;;4.28;100.00
41624;BME280;27319;50.306;18.926;2022-12-26T00:15:44;98320.44;;;4.24;100.00
41624;BME280;27319;50.306;18.926;2022-12-26T00:19:45;98306.13;;;4.15;100.00
41624;BME280;27319;50.306;18.926;2022-12-26T00:23:45;98312.34;;;4.25;100.00
41624;BME280;27319;50.306;18.926;2022-12-26T00:27:46;98312.81;;;4.30;100.00
41624;BME280;27319;50.306;18.926;2022-12-26T00:31:46;98331.16;;;4.33;100.00
41624;BME280;27319;50.306;18.926;2022-12-26T00:35:47;98340.44;;;4.39;100.00
41624;BME280;27319;50.306;18.926;2022-12-26T00:39:48;98339.66;;;4.16;100.00
41624;BME280;27319;50.306;18.926;2022-12-26T00:43:49;98327.72;;;4.22;100.00
41624;BME280;27319;50.306;18.926;2022-12-26T00:47:29;98327.44;;;4.25;100.00
41624;BME280;27319;50.306;18.926;2022-12-26T00:50:50;98329.19;;;4.15;100.00
41624;BME280;27319;50.306;18.926;2022-12-26T00:54:51;98328.28;;;4.25;100.00
41624;BME280;27319;50.306;18.926;2022-12-26T00:58:52;98322.44;;;4.11;100.00
41624;BME280;27319;50.306;18.926;2022-12-26T01:02:47;98332.34;;;4.09;100.00
41624;BME280;27319;50.306;18.926;2022-12-26T01:06:08;98329.81;;;4.07;100.00
41624;BME280;27319;50.306;18.926;2022-12-26T01:10:10;98310.25;;;4.08;100.00
41624;BME280;27319;50.306;18.926;2022-12-26T01:14:13;98312.34;;;3.94;100.00
41624;BME280;27319;50.306;18.926;2022-12-26T01:18:12;98304.28;;;3.95;100.00
41624;BME280;27319;50.306;18.926;2022-12-26T01:22:13;98308.72;;;3.95;100.00
41624;BME280;27319;50.306;18.926;2022-12-26T01:26:14;98314.56;;;4.20;100.00
41624;BME280;27319;50.306;18.926;2022-12-26T01:30:15;98309.91;;;4.33;100.00
41624;BME280;27319;50.306;18.926;2022-12-26T01:34:15;98327.28;;;4.06;100.00
41624;BME280;27319;50.306;18.926;2022-12-26T01:38:16;98315.22;;;4.02;100.00
41624;BME280;27319;50.306;18.926;2022-12-26T01:41:57;98301.59;;;4.06;100.00
41624;BME280;27319;50.306;18.926;2022-12-26T01:45:28;98298.03;;;4.17;100.00
41624;BME280;27319;50.306;18.926;2022-12-26T01:49:36;98278.91;;;4.23;100.00
41624;BME280;27319;50.306;18.926;2022-12-26T01:53:41;98288.13;;;4.39;100.00
41624;BME280;27319;50.306;18.926;2022-12-26T01:57:41;98290.94;;;4.38;100.00
41624;BME280;27319;50.306;18.926;2022-12-26T02:01:24;98266.56;;;4.33;100.00
41624;BME280;27319;50.306;18.926;2022-12-26T02:04:33;98263.56;;;4.26;100.00
41624;BME280;27319;50.306;18.926;2022-12-26T02:07:54;98248.16;;;4.20;100.00
41624;BME280;27319;50.306;18.926;2022-12-26T02:11:02;98259.69;;;4.30;100.00
41624;BME280;27319;50.306;18.926;2022-12-26T02:14:07;98243.16;;;4.27;100.00
41624;BME280;27319;50.306;18.926;2022-12-26T02:17:08;98233.00;;;4.11;100.00
41624;BME280;27319;50.306;18.926;2022-12-26T02:20:16;98246.41;;;4.10;100.00
41624;BME280;27319;50.306;18.926;2022-12-26T02:40:43;98259.50;;;3.91;100.00
41624;BME280;27319;50.306;18.926;2022-12-26T02:44:44;98244.22;;;3.83;100.00
41624;BME280;27319;50.306;18.926;2022-12-26T02:48:57;98230.38;;;3.80;100.00
41624;BME280;27319;50.306;18.926;2022-12-26T02:56:42;98233.38;;;3.75;100.00
41624;BME280;27319;50.306;18.926;2022-12-26T03:00:41;98225.16;;;3.78;100.00
41624;BME280;27319;50.306;18.926;2022-12-26T03:04:20;98233.44;;;3.85;100.00
41624;BME280;27319;50.306;18.926;2022-12-26T03:08:22;98223.81;;;3.84;100.00
41624;BME280;27319;50.306;18.926;2022-12-26T03:16:08;98181.66;;;3.70;100.00
41624;BME280;27319;50.306;18.926;2022-12-26T03:20:14;98170.69;;;3.63;100.00
41624;BME280;27319;50.306;18.926;2022-12-26T03:24:13;98183.69;;;3.77;100.00
41624;BME280;27319;50.306;18.926;2022-12-26T03:28:14;98191.72;;;4.07;100.00
41624;BME280;27319;50.306;18.926;2022-12-26T03:32:14;98208.56;;;4.17;100.00
41624;BME280;27319;50.306;18.926;2022-12-26T03:39:45;98178.56;;;3.85;100.00
41624;BME280;27319;50.306;18.926;2022-12-26T03:43:24;98183.16;;;3.83;100.00
41624;BME280;27319;50.306;18.926;2022-12-26T03:47:23;98191.84;;;3.85;100.00
41624;BME280;27319;50.306;18.926;2022-12-26T03:51:06;98197.38;;;3.82;100.00
41624;BME280;27319;50.306;18.926;2022-12-26T03:55:09;98184.78;;;3.75;100.00
41624;BME280;27319;50.306;18.926;2022-12-26T03:59:09;98182.75;;;3.67;100.00
41624;BME280;27319;50.306;18.926;2022-12-26T04:02:47;98176.94;;;3.73;100.00
41624;BME280;27319;50.306;18.926;2022-12-26T04:06:42;98171.88;;;3.70;100.00
41624;BME280;27319;50.306;18.926;2022-12-26T04:10:37;98167.41;;;3.71;100.00
41624;BME280;27319;50.306;18.926;2022-12-26T04:14:52;98164.88;;;3.69;100.00
41624;BME280;27319;50.306;18.926;2022-12-26T04:19:20;98151.28;;;3.63;100.00
41624;BME280;27319;50.306;18.926;2022-12-26T04:23:20;98150.63;;;3.70;100.00
41624;BME280;27319;50.306;18.926;2022-12-26T04:27:17;98178.66;;;3.63;100.00
41624;BME280;27319;50.306;18.926;2022-12-26T04:34:44;98183.56;;;3.68;100.00
41624;BME280;27319;50.306;18.926;2022-12-26T04:38:46;98195.47;;;3.53;100.00
41624;BME280;27319;50.306;18.926;2022-12-26T04:42:42;98188.13;;;3.45;100.00
41624;BME280;27319;50.306;18.926;2022-12-26T04:46:44;98178.72;;;3.41;100.00
41624;BME280;27319;50.306;18.926;2022-12-26T04:50:51;98166.25;;;3.32;100.00
41624;BME280;27319;50.306;18.926;2022-12-26T04:54:49;98160.34;;;3.29;100.00
41624;BME280;27319;50.306;18.926;2022-12-26T04:58:49;98162.84;;;3.30;100.00
41624;BME280;27319;50.306;18.926;2022-12-26T05:02:30;98163.31;;;3.35;100.00
41624;BME280;27319;50.306;18.926;2022-12-26T05:05:50;98158.72;;;3.48;100.00
41624;BME280;27319;50.306;18.926;2022-12-26T05:09:12;98152.94;;;3.43;100.00
41624;BME280;27319;50.306;18.926;2022-12-26T05:12:55;98155.84;;;3.40;100.00
41624;BME280;27319;50.306;18.926;2022-12-26T05:16:59;98157.75;;;3.49;100.00
41624;BME280;27319;50.306;18.926;2022-12-26T05:20:55;98153.00;;;3.84;100.00
41624;BME280;27319;50.306;18.926;2022-12-26T05:24:55;98144.63;;;3.89;100.00
41624;BME280;27319;50.306;18.926;2022-12-26T05:28:55;98159.66;;;4.20;100.00
41624;BME280;27319;50.306;18.926;2022-12-26T05:32:55;98167.09;;;4.46;100.00
41624;BME280;27319;50.306;18.926;2022-12-26T05:36:57;98149.41;;;4.66;100.00
41624;BME280;27319;50.306;18.926;2022-12-26T05:40:58;98154.97;;;5.02;100.00
41624;BME280;27319;50.306;18.926;2022-12-26T05:44:58;98164.59;;;5.43;100.00
41624;BME280;27319;50.306;18.926;2022-12-26T05:48:59;98170.03;;;5.41;100.00
41624;BME280;27319;50.306;18.926;2022-12-26T05:52:59;98164.16;;;5.66;100.00
41624;BME280;27319;50.306;18.926;2022-12-26T05:57:00;98156.91;;;5.68;100.00
41624;BME280;27319;50.306;18.926;2022-12-26T06:01:08;98168.25;;;5.89;100.00
41624;BME280;27319;50.306;18.926;2022-12-26T06:04:12;98169.66;;;5.93;100.00
41624;BME280;27319;50.306;18.926;2022-12-26T06:07:33;98160.97;;;6.10;100.00
41624;BME280;27319;50.306;18.926;2022-12-26T06:11:34;98154.66;;;6.11;100.00
41624;BME280;27319;50.306;18.926;2022-12-26T06:15:36;98128.72;;;6.13;100.00
41624;BME280;27319;50.306;18.926;2022-12-26T06:19:35;98145.91;;;6.28;100.00
41624;BME280;27319;50.306;18.926;2022-12-26T06:23:36;98153.63;;;6.31;100.00
41624;BME280;27319;50.306;18.926;2022-12-26T06:27:36;98163.38;;;6.50;100.00
41624;BME280;27319;50.306;18.926;2022-12-26T06:31:37;98176.88;;;6.48;100.00
41624;BME280;27319;50.306;18.926;2022-12-26T06:35:37;98180.25;;;6.87;100.00
41624;BME280;27319;50.306;18.926;2022-12-26T06:39:38;98175.66;;;6.79;100.00
41624;BME280;27319;50.306;18.926;2022-12-26T06:43:39;98169.72;;;6.85;100.00
41624;BME280;27319;50.306;18.926;2022-12-26T06:47:40;98193.56;;;6.96;100.00
41624;BME280;27319;50.306;18.926;2022-12-26T06:51:24;98205.13;;;6.87;100.00
41624;BME280;27319;50.306;18.926;2022-12-26T06:54:45;98209.47;;;7.15;100.00
41624;BME280;27319;50.306;18.926;2022-12-26T06:58:46;98200.19;;;7.19;100.00
41624;BME280;27319;50.306;18.926;2022-12-26T07:02:26;98205.47;;;7.29;100.00
41624;BME280;27319;50.306;18.926;2022-12-26T07:05:27;98198.59;;;7.26;100.00
41624;BME280;27319;50.306;18.926;2022-12-26T07:08:48;98185.25;;;7.26;100.00
41624;BME280;27319;50.306;18.926;2022-12-26T07:12:49;98189.91;;;7.24;100.00
41624;BME280;27319;50.306;18.926;2022-12-26T07:16:49;98191.84;;;7.32;100.00
41624;BME280;27319;50.306;18.926;2022-12-26T07:20:50;98194.13;;;7.44;99.70
41624;BME280;27319;50.306;18.926;2022-12-26T07:24:51;98194.44;;;7.41;99.86
41624;BME280;27319;50.306;18.926;2022-12-26T07:28:52;98202.06;;;7.36;99.94
41624;BME280;27319;50.306;18.926;2022-12-26T07:32:52;98201.47;;;7.42;99.71
41624;BME280;27319;50.306;18.926;2022-12-26T07:36:53;98217.69;;;7.58;99.22
41624;BME280;27319;50.306;18.926;2022-12-26T07:40:54;98197.13;;;7.59;98.74
41624;BME280;27319;50.306;18.926;2022-12-26T07:44:55;98191.13;;;7.57;98.95
41624;BME280;27319;50.306;18.926;2022-12-26T07:48:56;98201.72;;;7.66;99.56
41624;BME280;27319;50.306;18.926;2022-12-26T07:52:57;98203.31;;;7.59;99.31
41624;BME280;27319;50.306;18.926;2022-12-26T07:56:57;98201.59;;;7.68;99.05
41624;BME280;27319;50.306;18.926;2022-12-26T08:01:00;98204.31;;;7.58;99.94
41624;BME280;27319;50.306;18.926;2022-12-26T08:05:01;98206.47;;;7.55;99.84
41624;BME280;27319;50.306;18.926;2022-12-26T08:09:01;98218.50;;;7.59;100.00
41624;BME280;27319;50.306;18.926;2022-12-26T08:13:02;98223.69;;;7.60;100.00
41624;BME280;27319;50.306;18.926;2022-12-26T08:17:02;98232.78;;;7.67;100.00
41624;BME280;27319;50.306;18.926;2022-12-26T08:21:03;98234.91;;;7.64;100.00
41624;BME280;27319;50.306;18.926;2022-12-26T08:25:04;98235.47;;;7.67;100.00
41624;BME280;27319;50.306;18.926;2022-12-26T08:28:45;98223.69;;;7.60;100.00
41624;BME280;27319;50.306;18.926;2022-12-26T08:32:06;98224.41;;;7.62;100.00
41624;BME280;27319;50.306;18.926;2022-12-26T08:36:08;98220.97;;;7.70;100.00
41624;BME280;27319;50.306;18.926;2022-12-26T08:40:08;98243.03;;;7.72;100.00
41624;BME280;27319;50.306;18.926;2022-12-26T08:44:09;98239.03;;;7.58;100.00
41624;BME280;27319;50.306;18.926;2022-12-26T08:48:09;98215.09;;;7.66;100.00
41624;BME280;27319;50.306;18.926;2022-12-26T08:52:10;98219.22;;;7.61;100.00
41624;BME280;27319;50.306;18.926;2022-12-26T08:56:11;98228.59;;;7.65;100.00
41624;BME280;27319;50.306;18.926;2022-12-26T09:00:11;98232.66;;;7.69;100.00
41624;BME280;27319;50.306;18.926;2022-12-26T09:04:12;98219.22;;;7.78;100.00
41624;BME280;27319;50.306;18.926;2022-12-26T09:08:13;98208.06;;;7.65;100.00
41624;BME280;27319;50.306;18.926;2022-12-26T09:12:13;98204.13;;;7.69;100.00
41624;BME280;27319;50.306;18.926;2022-12-26T09:16:15;98225.09;;;7.64;100.00
41624;BME280;27319;50.306;18.926;2022-12-26T09:20:17;98219.16;;;7.70;100.00
41624;BME280;27319;50.306;18.926;2022-12-26T09:24:18;98230.91;;;7.77;100.00
41624;BME280;27319;50.306;18.926;2022-12-26T09:28:18;98226.69;;;7.75;100.00
41624;BME280;27319;50.306;18.926;2022-12-26T09:32:19;98225.28;;;7.80;100.00
41624;BME280;27319;50.306;18.926;2022-12-26T09:36:29;98236.56;;;7.74;100.00
41624;BME280;27319;50.306;18.926;2022-12-26T09:40:22;98236.38;;;7.76;100.00
41624;BME280;27319;50.306;18.926;2022-12-26T09:48:08;98237.53;;;7.73;100.00
41624;BME280;27319;50.306;18.926;2022-12-26T09:52:09;98240.31;;;7.81;100.00
41624;BME280;27319;50.306;18.926;2022-12-26T09:55:57;98231.66;;;7.70;100.00
41624;BME280;27319;50.306;18.926;2022-12-26T09:59:57;98219.75;;;7.82;100.00
41624;BME280;27319;50.306;18.926;2022-12-26T10:03:45;98211.38;;;7.77;100.00
41624;BME280;27319;50.306;18.926;2022-12-26T10:07:19;98211.97;;;7.71;100.00
41624;BME280;27319;50.306;18.926;2022-12-26T10:11:18;98197.63;;;7.72;100.00
41624;BME280;27319;50.306;18.926;2022-12-26T10:14:30;98208.16;;;7.91;100.00
41624;BME280;27319;50.306;18.926;2022-12-26T10:25:19;98211.38;;;7.94;100.00
41624;BME280;27319;50.306;18.926;2022-12-26T10:29:19;98209.03;;;7.91;100.00
41624;BME280;27319;50.306;18.926;2022-12-26T10:33:17;98210.09;;;7.98;100.00
41624;BME280;27319;50.306;18.926;2022-12-26T10:37:36;98201.16;;;7.90;100.00
41624;BME280;27319;50.306;18.926;2022-12-26T10:41:42;98181.97;;;7.94;100.00
41624;BME280;27319;50.306;18.926;2022-12-26T10:45:35;98177.88;;;8.00;100.00
41624;BME280;27319;50.306;18.926;2022-12-26T10:49:32;98171.97;;;8.14;100.00
41624;BME280;27319;50.306;18.926;2022-12-26T10:53:33;98170.47;;;8.19;100.00
41624;BME280;27319;50.306;18.926;2022-12-26T10:57:34;98178.50;;;8.19;100.00
41624;BME280;27319;50.306;18.926;2022-12-26T11:01:52;98185.72;;;8.19;100.00
41624;BME280;27319;50.306;18.926;2022-12-26T11:05:56;98185.19;;;8.15;100.00
41624;BME280;27319;50.306;18.926;2022-12-26T11:10:00;98182.66;;;8.14;100.00
41624;BME280;27319;50.306;18.926;2022-12-26T11:14:01;98169.50;;;8.38;100.00
41624;BME280;27319;50.306;18.926;2022-12-26T11:21:48;98159.31;;;8.41;100.00
41624;BME280;27319;50.306;18.926;2022-12-26T11:25:52;98172.31;;;8.36;100.00
41624;BME280;27319;50.306;18.926;2022-12-26T11:30:29;98157.88;;;8.47;99.14
41624;BME280;27319;50.306;18.926;2022-12-26T11:34:06;98154.06;;;8.49;99.18
41624;BME280;27319;50.306;18.926;2022-12-26T11:38:04;98144.66;;;8.45;99.65
41624;BME280;27319;50.306;18.926;2022-12-26T11:42:22;98140.03;;;8.55;98.62
41624;BME280;27319;50.306;18.926;2022-12-26T11:45:59;98152.47;;;8.64;97.24
41624;BME280;27319;50.306;18.926;2022-12-26T11:49:21;98149.38;;;8.51;97.73
41624;BME280;27319;50.306;18.926;2022-12-26T11:56:41;98150.63;;;8.65;97.35
41624;BME280;27319;50.306;18.926;2022-12-26T12:01:01;98137.78;;;8.68;96.66
41624;BME280;27319;50.306;18.926;2022-12-26T12:04:32;98127.44;;;8.73;96.76
41624;BME280;27319;50.306;18.926;2022-12-26T12:08:54;98122.09;;;8.73;96.08
41624;BME280;27319;50.306;18.926;2022-12-26T12:16:55;98129.09;;;8.74;95.94
41624;BME280;27319;50.306;18.926;2022-12-26T12:32:17;98137.63;;;9.03;94.41
41624;BME280;27319;50.306;18.926;2022-12-26T12:46:32;98137.47;;;9.05;94.20
41624;BME280;27319;50.306;18.926;2022-12-26T13:02:25;98128.63;;;9.12;92.54
41624;BME280;27319;50.306;18.926;2022-12-26T13:06:41;98123.94;;;9.14;92.62
41624;BME280;27319;50.306;18.926;2022-12-26T13:10:27;98124.81;;;9.23;92.94
41624;BME280;27319;50.306;18.926;2022-12-26T13:14:26;98125.44;;;9.17;92.13
41624;BME280;27319;50.306;18.926;2022-12-26T13:18:36;98130.34;;;9.29;91.96
41624;BME280;27319;50.306;18.926;2022-12-26T13:22:22;98122.63;;;9.26;91.97
41624;BME280;27319;50.306;18.926;2022-12-26T13:26:21;98125.31;;;9.34;91.58
41624;BME280;27319;50.306;18.926;2022-12-26T13:30:21;98113.88;;;9.16;92.38
41624;BME280;27319;50.306;18.926;2022-12-26T13:34:22;98111.78;;;9.36;91.12
41624;BME280;27319;50.306;18.926;2022-12-26T13:38:23;98116.47;;;9.42;90.90
41624;BME280;27319;50.306;18.926;2022-12-26T14:00:12;98125.69;;;9.39;90.90
41624;BME280;27319;50.306;18.926;2022-12-26T14:08:21;98115.31;;;9.44;90.41
41624;BME280;27319;50.306;18.926;2022-12-26T14:12:23;98103.94;;;9.42;90.61
41624;BME280;27319;50.306;18.926;2022-12-26T14:27:30;98132.88;;;9.39;92.69
41624;BME280;27319;50.306;18.926;2022-12-26T14:38:49;98130.66;;;9.26;94.54
41624;BME280;27319;50.306;18.926;2022-12-26T14:54:34;98132.78;;;9.64;93.89
41624;BME280;27319;50.306;18.926;2022-12-26T15:12:00;98109.69;;;9.14;94.63
41624;BME280;27319;50.306;18.926;2022-12-26T15:15:50;98109.38;;;9.09;95.23
41624;BME280;27319;50.306;18.926;2022-12-26T15:45:46;98115.19;;;9.04;94.06
41624;BME280;27319;50.306;18.926;2022-12-26T16:00:55;98106.50;;;9.02;94.26
41624;BME280;27319;50.306;18.926;2022-12-26T16:04:19;98106.50;;;9.02;95.09
41624;BME280;27319;50.306;18.926;2022-12-26T16:07:38;98111.84;;;9.02;94.87
41624;BME280;27319;50.306;18.926;2022-12-26T16:10:41;98111.50;;;9.05;94.98
41624;BME280;27319;50.306;18.926;2022-12-26T16:14:12;98108.50;;;9.00;95.39
41624;BME280;27319;50.306;18.926;2022-12-26T16:18:12;98128.84;;;8.93;96.17
41624;BME280;27319;50.306;18.926;2022-12-26T16:22:33;98118.09;;;8.77;97.42
41624;BME280;27319;50.306;18.926;2022-12-26T16:26:43;98090.63;;;8.67;98.88
41624;BME280;27319;50.306;18.926;2022-12-26T16:30:46;98107.81;;;8.65;99.79
41624;BME280;27319;50.306;18.926;2022-12-26T16:34:47;98151.66;;;8.72;99.33
41624;BME280;27319;50.306;18.926;2022-12-26T16:38:47;98135.94;;;8.69;99.14
41624;BME280;27319;50.306;18.926;2022-12-26T16:42:55;98125.25;;;8.69;99.35
41624;BME280;27319;50.306;18.926;2022-12-26T16:46:55;98114.19;;;8.64;99.72
41624;BME280;27319;50.306;18.926;2022-12-26T16:51:02;98125.25;;;8.69;99.52
41624;BME280;27319;50.306;18.926;2022-12-26T16:59:02;98059.47;;;8.58;100.00
41624;BME280;27319;50.306;18.926;2022-12-26T17:03:01;98045.63;;;8.63;100.00
41624;BME280;27319;50.306;18.926;2022-12-26T17:07:06;98074.06;;;8.64;100.00
41624;BME280;27319;50.306;18.926;2022-12-26T17:11:06;98091.66;;;8.74;100.00
41624;BME280;27319;50.306;18.926;2022-12-26T17:15:07;98112.31;;;8.64;100.00
41624;BME280;27319;50.306;18.926;2022-12-26T17:19:26;98105.06;;;8.82;100.00
41624;BME280;27319;50.306;18.926;2022-12-26T17:23:30;98105.00;;;8.66;100.00
41624;BME280;27319;50.306;18.926;2022-12-26T17:27:35;98123.50;;;8.60;100.00
41624;BME280;27319;50.306;18.926;2022-12-26T17:31:39;98105.63;;;8.60;100.00
41624;BME280;27319;50.306;18.926;2022-12-26T17:35:39;98110.28;;;8.58;100.00
41624;BME280;27319;50.306;18.926;2022-12-26T17:39:40;98109.72;;;8.72;100.00
41624;BME280;27319;50.306;18.926;2022-12-26T17:43:44;98122.50;;;8.61;100.00
41624;BME280;27319;50.306;18.926;2022-12-26T17:47:44;98130.38;;;8.62;100.00
41624;BME280;27319;50.306;18.926;2022-12-26T17:51:44;98114.34;;;8.62;100.00
41624;BME280;27319;50.306;18.926;2022-12-26T17:55:45;98129.09;;;8.66;100.00
41624;BME280;27319;50.306;18.926;2022-12-26T17:59:46;98130.06;;;8.65;100.00
41624;BME280;27319;50.306;18.926;2022-12-26T18:03:46;98140.75;;;8.65;100.00
41624;BME280;27319;50.306;18.926;2022-12-26T18:07:48;98134.38;;;8.58;100.00
41624;BME280;27319;50.306;18.926;2022-12-26T18:11:48;98125.00;;;8.54;100.00
41624;BME280;27319;50.306;18.926;2022-12-26T18:15:48;98137.03;;;8.58;100.00
41624;BME280;27319;50.306;18.926;2022-12-26T18:19:49;98138.56;;;8.61;100.00
41624;BME280;27319;50.306;18.926;2022-12-26T18:23:49;98112.16;;;8.58;100.00
41624;BME280;27319;50.306;18.926;2022-12-26T18:27:50;98128.50;;;8.55;100.00
41624;BME280;27319;50.306;18.926;2022-12-26T18:31:51;98116.59;;;8.49;100.00
41624;BME280;27319;50.306;18.926;2022-12-26T18:35:52;98130.91;;;8.40;100.00
41624;BME280;27319;50.306;18.926;2022-12-26T18:39:52;98109.66;;;8.39;100.00
41624;BME280;27319;50.306;18.926;2022-12-26T18:43:53;98122.84;;;8.32;100.00
41624;BME280;27319;50.306;18.926;2022-12-26T18:47:53;98126.09;;;8.44;100.00
41624;BME280;27319;50.306;18.926;2022-12-26T18:51:54;98133.91;;;8.37;100.00
41624;BME280;27319;50.306;18.926;2022-12-26T18:55:55;98136.59;;;8.37;100.00
41624;BME280;27319;50.306;18.926;2022-12-26T18:59:55;98131.44;;;8.44;99.95
41624;BME280;27319;50.306;18.926;2022-12-26T19:03:36;98137.31;;;8.47;99.65
41624;BME280;27319;50.306;18.926;2022-12-26T19:06:37;98147.00;;;8.48;99.32
41624;BME280;27319;50.306;18.926;2022-12-26T19:09:41;98153.16;;;8.41;99.73
41624;BME280;27319;50.306;18.926;2022-12-26T19:12:45;98150.84;;;8.46;99.76
41624;BME280;27319;50.306;18.926;2022-12-26T19:16:06;98151.41;;;8.57;99.06
41624;BME280;27319;50.306;18.926;2022-12-26T19:20:07;98154.19;;;8.48;99.94
41624;BME280;27319;50.306;18.926;2022-12-26T19:23:48;98172.97;;;8.56;99.86
41624;BME280;27319;50.306;18.926;2022-12-26T19:27:09;98166.56;;;8.49;99.56
41624;BME280;27319;50.306;18.926;2022-12-26T19:31:10;98161.63;;;8.36;99.96
41624;BME280;27319;50.306;18.926;2022-12-26T19:35:10;98165.06;;;8.46;100.00
41624;BME280;27319;50.306;18.926;2022-12-26T19:39:10;98177.03;;;8.42;100.00
41624;BME280;27319;50.306;18.926;2022-12-26T19:43:11;98173.19;;;8.37;100.00
41624;BME280;27319;50.306;18.926;2022-12-26T19:47:12;98168.88;;;8.44;100.00
41624;BME280;27319;50.306;18.926;2022-12-26T19:51:13;98179.09;;;8.48;100.00
41624;BME280;27319;50.306;18.926;2022-12-26T19:55:13;98188.44;;;8.44;100.00
41624;BME280;27319;50.306;18.926;2022-12-26T19:59:14;98191.13;;;8.44;100.00
41624;BME280;27319;50.306;18.926;2022-12-26T20:03:15;98198.91;;;8.55;99.92
41624;BME280;27319;50.306;18.926;2022-12-26T20:07:19;98205.16;;;8.46;100.00
41624;BME280;27319;50.306;18.926;2022-12-26T20:11:23;98208.47;;;8.40;100.00
41624;BME280;27319;50.306;18.926;2022-12-26T20:15:23;98204.78;;;8.41;100.00
41624;BME280;27319;50.306;18.926;2022-12-26T20:19:24;98200.34;;;8.50;100.00
41624;BME280;27319;50.306;18.926;2022-12-26T20:23:25;98201.28;;;8.41;100.00
41624;BME280;27319;50.306;18.926;2022-12-26T20:27:26;98201.81;;;8.44;100.00
41624;BME280;27319;50.306;18.926;2022-12-26T20:31:27;98201.06;;;8.34;100.00
41624;BME280;27319;50.306;18.926;2022-12-26T20:35:28;98206.13;;;8.37;100.00
41624;BME280;27319;50.306;18.926;2022-12-26T20:39:33;98193.66;;;8.46;100.00
41624;BME280;27319;50.306;18.926;2022-12-26T20:43:34;98211.09;;;8.32;100.00
41624;BME280;27319;50.306;18.926;2022-12-26T20:47:34;98204.50;;;8.27;100.00
41624;BME280;27319;50.306;18.926;2022-12-26T20:51:36;98210.09;;;8.33;100.00
41624;BME280;27319;50.306;18.926;2022-12-26T20:55:36;98208.41;;;8.32;100.00
41624;BME280;27319;50.306;18.926;2022-12-26T20:59:37;98198.34;;;8.26;100.00
41624;BME280;27319;50.306;18.926;2022-12-26T21:03:37;98208.31;;;8.42;100.00
41624;BME280;27319;50.306;18.926;2022-12-26T21:07:38;98221.94;;;8.31;100.00
41624;BME280;27319;50.306;18.926;2022-12-26T21:11:39;98210.19;;;8.24;100.00
41624;BME280;27319;50.306;18.926;2022-12-26T21:15:40;98217.19;;;8.25;100.00
41624;BME280;27319;50.306;18.926;2022-12-26T21:19:40;98219.78;;;8.17;100.00
41624;BME280;27319;50.306;18.926;2022-12-26T21:23:41;98228.63;;;8.17;100.00
41624;BME280;27319;50.306;18.926;2022-12-26T21:27:41;98225.13;;;8.17;100.00
41624;BME280;27319;50.306;18.926;2022-12-26T21:31:42;98227.50;;;8.20;100.00
41624;BME280;27319;50.306;18.926;2022-12-26T21:35:43;98228.78;;;8.16;100.00
41624;BME280;27319;50.306;18.926;2022-12-26T21:39:46;98217.69;;;8.11;100.00
41624;BME280;27319;50.306;18.926;2022-12-26T21:43:47;98215.19;;;8.09;100.00
41624;BME280;27319;50.306;18.926;2022-12-26T21:47:47;98220.44;;;8.01;100.00
41624;BME280;27319;50.306;18.926;2022-12-26T21:51:48;98200.91;;;8.01;100.00
41624;BME280;27319;50.306;18.926;2022-12-26T21:55:49;98198.25;;;8.01;100.00
41624;BME280;27319;50.306;18.926;2022-12-26T21:59:49;98191.22;;;8.00;100.00
41624;BME280;27319;50.306;18.926;2022-12-26T22:03:50;98193.19;;;7.98;100.00
41624;BME280;27319;50.306;18.926;2022-12-26T22:08:00;98182.50;;;7.98;100.00
41624;BME280;27319;50.306;18.926;2022-12-26T22:12:00;98186.19;;;7.97;100.00
41624;BME280;27319;50.306;18.926;2022-12-26T22:15:59;98187.84;;;7.98;100.00
41624;BME280;27319;50.306;18.926;2022-12-26T22:19:40;98184.34;;;7.97;100.00
41624;BME280;27319;50.306;18.926;2022-12-26T22:22:41;98184.78;;;7.93;100.00
41624;BME280;27319;50.306;18.926;2022-12-26T22:26:02;98185.41;;;7.87;100.00
41624;BME280;27319;50.306;18.926;2022-12-26T22:30:03;98185.66;;;7.93;100.00
41624;BME280;27319;50.306;18.926;2022-12-26T22:34:08;98185.31;;;7.96;100.00
41624;BME280;27319;50.306;18.926;2022-12-26T22:38:07;98197.31;;;8.10;100.00
41624;BME280;27319;50.306;18.926;2022-12-26T22:41:29;98187.94;;;7.88;100.00
41624;BME280;27319;50.306;18.926;2022-12-26T22:44:31;98180.44;;;8.09;100.00
41624;BME280;27319;50.306;18.926;2022-12-26T22:47:32;98178.84;;;7.99;100.00
41624;BME280;27319;50.306;18.926;2022-12-26T22:50:33;98165.13;;;8.19;100.00
41624;BME280;27319;50.306;18.926;2022-12-26T22:53:42;98165.94;;;7.94;100.00
41624;BME280;27319;50.306;18.926;2022-12-26T22:56:43;98150.22;;;7.91;100.00
41624;BME280;27319;50.306;18.926;2022-12-26T22:59:44;98160.22;;;7.89;100.00
41624;BME280;27319;50.306;18.926;2022-12-26T23:03:05;98142.28;;;7.99;100.00
41624;BME280;27319;50.306;18.926;2022-12-26T23:07:05;98153.66;;;7.84;100.00
41624;BME280;27319;50.306;18.926;2022-12-26T23:11:06;98153.03;;;7.90;100.00
41624;BME280;27319;50.306;18.926;2022-12-26T23:14:47;98150.53;;;7.88;100.00
41624;BME280;27319;50.306;18.926;2022-12-26T23:17:56;98150.84;;;7.85;100.00
41624;BME280;27319;50.306;18.926;2022-12-26T23:21:30;98134.63;;;7.87;100.00
41624;BME280;27319;50.306;18.926;2022-12-26T23:24:44;98136.31;;;7.88;100.00
41624;BME280;27319;50.306;18.926;2022-12-26T23:27:45;98137.78;;;7.82;100.00
41624;BME280;27319;50.306;18.926;2022-12-26T23:31:04;98136.63;;;7.85;100.00
41624;BME280;27319;50.306;18.926;2022-12-26T23:34:25;98121.06;;;7.80;100.00